sensor_id;sensor_type;location;lat;lon;timestamp;temperature;humidity
1994;DHT22;998;49.906;10.908;2024-01-30T00:00:54;2.60;99.90
1994;DHT22;998;49.906;10.908;2024-01-30T00:03:23;2.50;99.90
1994;DHT22;998;49.906;10.908;2024-01-30T00:05:50;2.50;99.90
1994;DHT22;998;49.906;10.908;2024-01-30T00:08:18;2.40;99.90
1994;DHT22;998;49.906;10.908;2024-01-30T00:10:45;2.50;99.90
1994;DHT22;998;49.906;10.908;2024-01-30T00:13:12;2.50;99.90
1994;DHT22;998;49.906;10.908;2024-01-30T00:15:42;2.50;99.90
1994;DHT22;998;49.906;10.908;2024-01-30T00:18:10;2.50;99.90
1994;DHT22;998;49.906;10.908;2024-01-30T00:20:38;2.50;99.90
1994;DHT22;998;49.906;10.908;2024-01-30T00:23:06;2.50;99.90
1994;DHT22;998;49.906;10.908;2024-01-30T00:25:33;2.50;99.90
1994;DHT22;998;49.906;10.908;2024-01-30T00:28:01;2.50;99.90
1994;DHT22;998;49.906;10.908;2024-01-30T00:30:28;2.50;99.90
1994;DHT22;998;49.906;10.908;2024-01-30T00:32:55;2.50;99.90
1994;DHT22;998;49.906;10.908;2024-01-30T00:35:23;2.50;99.90
1994;DHT22;998;49.906;10.908;2024-01-30T00:37:51;2.40;99.90
1994;DHT22;998;49.906;10.908;2024-01-30T00:40:19;2.50;99.90
1994;DHT22;998;49.906;10.908;2024-01-30T00:42:46;2.40;99.90
1994;DHT22;998;49.906;10.908;2024-01-30T00:45:14;2.40;99.90
1994;DHT22;998;49.906;10.908;2024-01-30T00:47:41;2.40;99.90
1994;DHT22;998;49.906;10.908;2024-01-30T00:50:09;2.30;99.90
1994;DHT22;998;49.906;10.908;2024-01-30T00:52:37;2.30;99.90
1994;DHT22;998;49.906;10.908;2024-01-30T00:55:08;2.20;99.90
1994;DHT22;998;49.906;10.908;2024-01-30T00:57:36;2.20;99.90
1994;DHT22;998;49.906;10.908;2024-01-30T01:00:04;2.20;99.90
1994;DHT22;998;49.906;10.908;2024-01-30T01:02:34;2.30;99.90
1994;DHT22;998;49.906;10.908;2024-01-30T01:05:02;2.30;99.90
1994;DHT22;998;49.906;10.908;2024-01-30T01:07:30;2.30;99.90
1994;DHT22;998;49.906;10.908;2024-01-30T01:09:58;2.40;99.90
1994;DHT22;998;49.906;10.908;2024-01-30T01:12:26;2.20;99.90
1994;DHT22;998;49.906;10.908;2024-01-30T01:14:54;2.30;99.90
1994;DHT22;998;49.906;10.908;2024-01-30T01:17:21;2.20;99.90
1994;DHT22;998;49.906;10.908;2024-01-30T01:19:48;2.20;99.90
1994;DHT22;998;49.906;10.908;2024-01-30T01:22:16;2.20;99.90
1994;DHT22;998;49.906;10.908;2024-01-30T01:24:44;2.10;99.90
1994;DHT22;998;49.906;10.908;2024-01-30T01:27:11;2.10;99.90
1994;DHT22;998;49.906;10.908;2024-01-30T01:29:40;2.10;99.90
1994;DHT22;998;49.906;10.908;2024-01-30T01:32:07;2.10;99.90
1994;DHT22;998;49.906;10.908;2024-01-30T01:34:35;2.00;99.90
1994;DHT22;998;49.906;10.908;2024-01-30T01:37:02;2.00;99.90
1994;DHT22;998;49.906;10.908;2024-01-30T01:39:30;2.10;99.90
1994;DHT22;998;49.906;10.908;2024-01-30T01:41:57;2.10;99.90
1994;DHT22;998;49.906;10.908;2024-01-30T01:44:25;2.20;99.90
1994;DHT22;998;49.906;10.908;2024-01-30T01:46:54;2.10;99.90
1994;DHT22;998;49.906;10.908;2024-01-30T01:49:23;2.10;99.90
1994;DHT22;998;49.906;10.908;2024-01-30T01:51:52;2.00;99.90
1994;DHT22;998;49.906;10.908;2024-01-30T01:54:21;2.00;99.90
1994;DHT22;998;49.906;10.908;2024-01-30T01:56:49;2.00;99.90
1994;DHT22;998;49.906;10.908;2024-01-30T01:59:18;2.00;99.90
1994;DHT22;998;49.906;10.908;2024-01-30T02:01:47;2.00;99.90
1994;DHT22;998;49.906;10.908;2024-01-30T02:04:17;1.90;99.90
1994;DHT22;998;49.906;10.908;2024-01-30T02:06:44;1.80;99.90
1994;DHT22;998;49.906;10.908;2024-01-30T02:09:12;1.90;99.90
1994;DHT22;998;49.906;10.908;2024-01-30T02:11:39;1.90;99.90
1994;DHT22;998;49.906;10.908;2024-01-30T02:14:06;1.90;99.90
1994;DHT22;998;49.906;10.908;2024-01-30T02:16:34;1.90;99.90
1994;DHT22;998;49.906;10.908;2024-01-30T02:19:02;1.90;99.90
1994;DHT22;998;49.906;10.908;2024-01-30T02:21:31;1.80;99.90
1994;DHT22;998;49.906;10.908;2024-01-30T02:23:59;1.80;99.90
1994;DHT22;998;49.906;10.908;2024-01-30T02:26:26;1.80;99.90
1994;DHT22;998;49.906;10.908;2024-01-30T02:28:54;1.80;99.90
1994;DHT22;998;49.906;10.908;2024-01-30T02:31:21;1.80;99.90
1994;DHT22;998;49.906;10.908;2024-01-30T02:33:50;1.80;99.90
1994;DHT22;998;49.906;10.908;2024-01-30T02:36:17;1.70;99.90
1994;DHT22;998;49.906;10.908;2024-01-30T02:38:46;1.70;99.90
1994;DHT22;998;49.906;10.908;2024-01-30T02:41:13;1.50;99.90
1994;DHT22;998;49.906;10.908;2024-01-30T02:43:40;1.70;99.90
1994;DHT22;998;49.906;10.908;2024-01-30T02:46:08;1.80;99.90
1994;DHT22;998;49.906;10.908;2024-01-30T02:48:35;1.80;99.90
1994;DHT22;998;49.906;10.908;2024-01-30T02:51:04;1.70;99.90
1994;DHT22;998;49.906;10.908;2024-01-30T02:53:31;2.00;99.90
1994;DHT22;998;49.906;10.908;2024-01-30T02:56:00;1.70;99.90
1994;DHT22;998;49.906;10.908;2024-01-30T02:58:28;1.60;99.90
1994;DHT22;998;49.906;10.908;2024-01-30T03:00:55;2.00;99.90
1994;DHT22;998;49.906;10.908;2024-01-30T03:03:22;1.80;99.90
1994;DHT22;998;49.906;10.908;2024-01-30T03:05:51;1.70;99.90
1994;DHT22;998;49.906;10.908;2024-01-30T03:08:18;1.80;99.90
1994;DHT22;998;49.906;10.908;2024-01-30T03:10:46;1.70;99.90
1994;DHT22;998;49.906;10.908;2024-01-30T03:13:14;1.40;99.90
1994;DHT22;998;49.906;10.908;2024-01-30T03:15:41;1.50;99.90
1994;DHT22;998;49.906;10.908;2024-01-30T03:18:08;1.50;99.90
1994;DHT22;998;49.906;10.908;2024-01-30T03:20:36;1.70;99.90
1994;DHT22;998;49.906;10.908;2024-01-30T03:23:03;1.60;99.90
1994;DHT22;998;49.906;10.908;2024-01-30T03:25:31;1.50;99.90
1994;DHT22;998;49.906;10.908;2024-01-30T03:27:58;1.40;99.90
1994;DHT22;998;49.906;10.908;2024-01-30T03:30:27;1.30;99.90
1994;DHT22;998;49.906;10.908;2024-01-30T03:32:54;1.40;99.90
1994;DHT22;998;49.906;10.908;2024-01-30T03:35:21;1.30;99.90
1994;DHT22;998;49.906;10.908;2024-01-30T03:37:48;1.40;99.90
1994;DHT22;998;49.906;10.908;2024-01-30T03:40:16;1.50;99.90
1994;DHT22;998;49.906;10.908;2024-01-30T03:42:43;1.50;99.90
1994;DHT22;998;49.906;10.908;2024-01-30T03:45:11;1.50;99.90
1994;DHT22;998;49.906;10.908;2024-01-30T03:47:40;1.30;99.90
1994;DHT22;998;49.906;10.908;2024-01-30T03:50:10;1.40;99.90
1994;DHT22;998;49.906;10.908;2024-01-30T03:52:37;1.30;99.90
1994;DHT22;998;49.906;10.908;2024-01-30T03:55:05;1.20;99.90
1994;DHT22;998;49.906;10.908;2024-01-30T03:57:33;1.30;99.90
1994;DHT22;998;49.906;10.908;2024-01-30T04:00:00;1.40;99.90
1994;DHT22;998;49.906;10.908;2024-01-30T04:02:30;1.20;99.90
1994;DHT22;998;49.906;10.908;2024-01-30T04:04:59;1.30;99.90
1994;DHT22;998;49.906;10.908;2024-01-30T04:07:27;1.30;99.90
1994;DHT22;998;49.906;10.908;2024-01-30T04:09:55;1.00;99.90
1994;DHT22;998;49.906;10.908;2024-01-30T04:12:22;1.20;99.90
1994;DHT22;998;49.906;10.908;2024-01-30T04:14:50;1.20;99.90
1994;DHT22;998;49.906;10.908;2024-01-30T04:17:17;1.00;99.90
1994;DHT22;998;49.906;10.908;2024-01-30T04:19:45;1.20;99.90
1994;DHT22;998;49.906;10.908;2024-01-30T04:22:13;1.20;99.90
1994;DHT22;998;49.906;10.908;2024-01-30T04:24:41;1.90;99.90
1994;DHT22;998;49.906;10.908;2024-01-30T04:27:08;1.40;99.90
1994;DHT22;998;49.906;10.908;2024-01-30T04:29:35;1.30;99.90
1994;DHT22;998;49.906;10.908;2024-01-30T04:32:03;1.40;99.90
1994;DHT22;998;49.906;10.908;2024-01-30T04:34:31;1.50;99.90
1994;DHT22;998;49.906;10.908;2024-01-30T04:36:58;1.40;99.90
1994;DHT22;998;49.906;10.908;2024-01-30T04:39:27;1.80;99.90
1994;DHT22;998;49.906;10.908;2024-01-30T04:41:54;1.20;99.90
1994;DHT22;998;49.906;10.908;2024-01-30T04:44:22;1.20;99.90
1994;DHT22;998;49.906;10.908;2024-01-30T04:46:49;1.40;99.90
1994;DHT22;998;49.906;10.908;2024-01-30T04:49:17;1.10;99.90
1994;DHT22;998;49.906;10.908;2024-01-30T04:51:44;1.30;99.90
1994;DHT22;998;49.906;10.908;2024-01-30T04:54:11;1.30;99.90
1994;DHT22;998;49.906;10.908;2024-01-30T04:56:40;1.30;99.90
1994;DHT22;998;49.906;10.908;2024-01-30T04:59:07;1.30;99.90
1994;DHT22;998;49.906;10.908;2024-01-30T05:01:35;1.20;99.90
1994;DHT22;998;49.906;10.908;2024-01-30T05:04:03;1.20;99.90
1994;DHT22;998;49.906;10.908;2024-01-30T05:06:30;1.20;99.90
1994;DHT22;998;49.906;10.908;2024-01-30T05:08:58;1.20;99.90
1994;DHT22;998;49.906;10.908;2024-01-30T05:11:25;1.20;99.90
1994;DHT22;998;49.906;10.908;2024-01-30T05:13:54;1.20;99.90
1994;DHT22;998;49.906;10.908;2024-01-30T05:16:21;1.20;99.90
1994;DHT22;998;49.906;10.908;2024-01-30T05:18:49;1.20;99.90
1994;DHT22;998;49.906;10.908;2024-01-30T05:21:16;1.10;99.90
1994;DHT22;998;49.906;10.908;2024-01-30T05:23:43;1.80;99.90
1994;DHT22;998;49.906;10.908;2024-01-30T05:26:10;1.40;99.90
1994;DHT22;998;49.906;10.908;2024-01-30T05:28:38;1.40;99.90
1994;DHT22;998;49.906;10.908;2024-01-30T05:31:06;1.50;99.90
1994;DHT22;998;49.906;10.908;2024-01-30T05:33:34;1.50;99.90
1994;DHT22;998;49.906;10.908;2024-01-30T05:36:01;1.50;99.90
1994;DHT22;998;49.906;10.908;2024-01-30T05:38:28;1.50;99.90
1994;DHT22;998;49.906;10.908;2024-01-30T05:40:56;1.60;99.90
1994;DHT22;998;49.906;10.908;2024-01-30T05:43:23;1.60;99.90
1994;DHT22;998;49.906;10.908;2024-01-30T05:45:51;1.50;99.90
1994;DHT22;998;49.906;10.908;2024-01-30T05:48:20;1.50;99.90
1994;DHT22;998;49.906;10.908;2024-01-30T05:50:47;1.50;99.90
1994;DHT22;998;49.906;10.908;2024-01-30T05:53:15;1.40;99.90
1994;DHT22;998;49.906;10.908;2024-01-30T05:55:42;1.40;99.90
1994;DHT22;998;49.906;10.908;2024-01-30T05:58:09;1.50;99.90
1994;DHT22;998;49.906;10.908;2024-01-30T06:00:37;1.60;99.90
1994;DHT22;998;49.906;10.908;2024-01-30T06:03:04;2.40;99.90
1994;DHT22;998;49.906;10.908;2024-01-30T06:05:33;1.70;99.90
1994;DHT22;998;49.906;10.908;2024-01-30T06:08:01;1.70;99.90
1994;DHT22;998;49.906;10.908;2024-01-30T06:10:29;1.60;99.90
1994;DHT22;998;49.906;10.908;2024-01-30T06:12:56;1.60;99.90
1994;DHT22;998;49.906;10.908;2024-01-30T06:15:23;1.60;99.90
1994;DHT22;998;49.906;10.908;2024-01-30T06:17:51;1.70;99.90
1994;DHT22;998;49.906;10.908;2024-01-30T06:20:19;2.10;99.90
1994;DHT22;998;49.906;10.908;2024-01-30T06:22:48;1.80;99.90
1994;DHT22;998;49.906;10.908;2024-01-30T06:25:15;2.10;99.90
1994;DHT22;998;49.906;10.908;2024-01-30T06:27:43;1.90;99.90
1994;DHT22;998;49.906;10.908;2024-01-30T06:30:11;1.90;99.90
1994;DHT22;998;49.906;10.908;2024-01-30T06:32:39;2.10;99.90
1994;DHT22;998;49.906;10.908;2024-01-30T06:35:07;1.90;99.90
1994;DHT22;998;49.906;10.908;2024-01-30T06:37:36;1.90;99.90
1994;DHT22;998;49.906;10.908;2024-01-30T06:40:06;2.10;99.90
1994;DHT22;998;49.906;10.908;2024-01-30T06:42:34;2.10;99.90
1994;DHT22;998;49.906;10.908;2024-01-30T06:45:01;1.80;99.90
1994;DHT22;998;49.906;10.908;2024-01-30T06:47:29;1.90;99.90
1994;DHT22;998;49.906;10.908;2024-01-30T06:49:56;1.90;99.90
1994;DHT22;998;49.906;10.908;2024-01-30T06:52:24;1.90;99.90
1994;DHT22;998;49.906;10.908;2024-01-30T06:54:51;1.90;99.90
1994;DHT22;998;49.906;10.908;2024-01-30T06:57:20;1.90;99.90
1994;DHT22;998;49.906;10.908;2024-01-30T06:59:48;2.00;99.90
1994;DHT22;998;49.906;10.908;2024-01-30T07:02:15;1.90;99.90
1994;DHT22;998;49.906;10.908;2024-01-30T07:04:43;2.00;99.90
1994;DHT22;998;49.906;10.908;2024-01-30T07:07:10;2.20;99.90
1994;DHT22;998;49.906;10.908;2024-01-30T07:09:39;2.20;99.90
1994;DHT22;998;49.906;10.908;2024-01-30T07:12:07;2.20;99.90
1994;DHT22;998;49.906;10.908;2024-01-30T07:14:36;2.10;99.90
1994;DHT22;998;49.906;10.908;2024-01-30T07:17:03;2.10;99.90
1994;DHT22;998;49.906;10.908;2024-01-30T07:19:31;2.10;99.90
1994;DHT22;998;49.906;10.908;2024-01-30T07:22:00;2.10;99.90
1994;DHT22;998;49.906;10.908;2024-01-30T07:24:27;2.10;99.90
1994;DHT22;998;49.906;10.908;2024-01-30T07:26:55;2.10;99.90
1994;DHT22;998;49.906;10.908;2024-01-30T07:29:22;2.00;99.90
1994;DHT22;998;49.906;10.908;2024-01-30T07:31:51;2.10;99.90
1994;DHT22;998;49.906;10.908;2024-01-30T07:34:18;2.00;99.90
1994;DHT22;998;49.906;10.908;2024-01-30T07:36:46;2.10;99.90
1994;DHT22;998;49.906;10.908;2024-01-30T07:39:13;2.10;99.90
1994;DHT22;998;49.906;10.908;2024-01-30T07:41:40;2.10;99.90
1994;DHT22;998;49.906;10.908;2024-01-30T07:44:08;1.90;99.90
1994;DHT22;998;49.906;10.908;2024-01-30T07:46:35;2.00;99.90
1994;DHT22;998;49.906;10.908;2024-01-30T07:49:04;2.00;99.90
1994;DHT22;998;49.906;10.908;2024-01-30T07:51:31;2.00;99.90
1994;DHT22;998;49.906;10.908;2024-01-30T07:53:59;2.10;99.90
1994;DHT22;998;49.906;10.908;2024-01-30T07:56:26;2.10;99.90
1994;DHT22;998;49.906;10.908;2024-01-30T07:58:53;2.20;99.90
1994;DHT22;998;49.906;10.908;2024-01-30T08:01:20;2.10;99.90
1994;DHT22;998;49.906;10.908;2024-01-30T08:03:47;2.10;99.90
1994;DHT22;998;49.906;10.908;2024-01-30T08:06:16;2.10;99.90
1994;DHT22;998;49.906;10.908;2024-01-30T08:08:44;2.10;99.90
1994;DHT22;998;49.906;10.908;2024-01-30T08:11:10;2.30;99.90
1994;DHT22;998;49.906;10.908;2024-01-30T08:13:37;2.20;99.90
1994;DHT22;998;49.906;10.908;2024-01-30T08:16:05;2.30;99.90
1994;DHT22;998;49.906;10.908;2024-01-30T08:18:32;2.20;99.90
1994;DHT22;998;49.906;10.908;2024-01-30T08:20:59;2.20;99.90
1994;DHT22;998;49.906;10.908;2024-01-30T08:23:27;2.30;99.90
1994;DHT22;998;49.906;10.908;2024-01-30T08:25:54;2.30;99.90
1994;DHT22;998;49.906;10.908;2024-01-30T08:28:21;2.30;99.90
1994;DHT22;998;49.906;10.908;2024-01-30T08:30:48;2.40;99.90
1994;DHT22;998;49.906;10.908;2024-01-30T08:33:14;2.40;99.90
1994;DHT22;998;49.906;10.908;2024-01-30T08:35:41;2.40;99.90
1994;DHT22;998;49.906;10.908;2024-01-30T08:38:09;2.40;99.90
1994;DHT22;998;49.906;10.908;2024-01-30T08:40:39;2.40;99.90
1994;DHT22;998;49.906;10.908;2024-01-30T08:43:07;2.50;99.90
1994;DHT22;998;49.906;10.908;2024-01-30T08:45:36;2.50;99.90
1994;DHT22;998;49.906;10.908;2024-01-30T08:48:04;2.50;99.90
1994;DHT22;998;49.906;10.908;2024-01-30T08:50:31;2.50;99.90
1994;DHT22;998;49.906;10.908;2024-01-30T08:52:58;2.60;99.90
1994;DHT22;998;49.906;10.908;2024-01-30T08:55:26;2.60;99.90
1994;DHT22;998;49.906;10.908;2024-01-30T08:57:54;2.70;99.90
1994;DHT22;998;49.906;10.908;2024-01-30T09:00:21;2.70;99.90
1994;DHT22;998;49.906;10.908;2024-01-30T09:02:49;2.70;99.90
1994;DHT22;998;49.906;10.908;2024-01-30T09:05:16;2.80;99.90
1994;DHT22;998;49.906;10.908;2024-01-30T09:07:43;2.80;99.90
1994;DHT22;998;49.906;10.908;2024-01-30T09:10:11;2.80;99.90
1994;DHT22;998;49.906;10.908;2024-01-30T09:12:39;2.90;99.90
1994;DHT22;998;49.906;10.908;2024-01-30T09:15:09;2.90;99.90
1994;DHT22;998;49.906;10.908;2024-01-30T09:17:36;2.90;99.90
1994;DHT22;998;49.906;10.908;2024-01-30T09:20:05;3.00;99.90
1994;DHT22;998;49.906;10.908;2024-01-30T09:22:32;3.00;99.90
1994;DHT22;998;49.906;10.908;2024-01-30T09:24:59;3.00;99.90
1994;DHT22;998;49.906;10.908;2024-01-30T09:27:27;3.00;99.90
1994;DHT22;998;49.906;10.908;2024-01-30T09:29:54;3.10;99.90
1994;DHT22;998;49.906;10.908;2024-01-30T09:32:23;3.10;99.90
1994;DHT22;998;49.906;10.908;2024-01-30T09:34:50;3.20;99.90
1994;DHT22;998;49.906;10.908;2024-01-30T09:37:17;3.20;99.90
1994;DHT22;998;49.906;10.908;2024-01-30T09:39:44;3.30;99.90
1994;DHT22;998;49.906;10.908;2024-01-30T09:42:17;3.30;99.90
1994;DHT22;998;49.906;10.908;2024-01-30T09:44:47;2.90;99.90
1994;DHT22;998;49.906;10.908;2024-01-30T09:47:17;3.60;99.90
1994;DHT22;998;49.906;10.908;2024-01-30T09:49:47;3.60;99.90
1994;DHT22;998;49.906;10.908;2024-01-30T09:52:15;3.70;99.90
1994;DHT22;998;49.906;10.908;2024-01-30T09:54:42;3.80;99.90
1994;DHT22;998;49.906;10.908;2024-01-30T09:57:11;3.90;99.90
1994;DHT22;998;49.906;10.908;2024-01-30T09:59:39;3.90;99.90
1994;DHT22;998;49.906;10.908;2024-01-30T10:02:07;4.00;99.90
1994;DHT22;998;49.906;10.908;2024-01-30T10:04:34;4.00;99.90
1994;DHT22;998;49.906;10.908;2024-01-30T10:07:04;4.10;99.90
1994;DHT22;998;49.906;10.908;2024-01-30T10:09:32;4.10;99.90
1994;DHT22;998;49.906;10.908;2024-01-30T10:11:59;4.10;99.90
1994;DHT22;998;49.906;10.908;2024-01-30T10:14:27;4.20;99.90
1994;DHT22;998;49.906;10.908;2024-01-30T10:16:55;4.20;99.90
1994;DHT22;998;49.906;10.908;2024-01-30T10:19:22;4.30;99.90
1994;DHT22;998;49.906;10.908;2024-01-30T10:21:50;4.30;99.90
1994;DHT22;998;49.906;10.908;2024-01-30T10:24:19;4.40;99.90
1994;DHT22;998;49.906;10.908;2024-01-30T10:26:50;4.40;99.90
1994;DHT22;998;49.906;10.908;2024-01-30T10:29:18;4.50;99.90
1994;DHT22;998;49.906;10.908;2024-01-30T10:31:45;4.50;99.90
1994;DHT22;998;49.906;10.908;2024-01-30T10:34:13;4.60;99.90
1994;DHT22;998;49.906;10.908;2024-01-30T10:36:41;4.60;99.90
1994;DHT22;998;49.906;10.908;2024-01-30T10:39:11;4.70;99.90
1994;DHT22;998;49.906;10.908;2024-01-30T10:41:44;4.70;99.90
1994;DHT22;998;49.906;10.908;2024-01-30T10:44:11;4.80;99.90
1994;DHT22;998;49.906;10.908;2024-01-30T10:46:39;4.80;99.90
1994;DHT22;998;49.906;10.908;2024-01-30T10:49:09;4.90;99.90
1994;DHT22;998;49.906;10.908;2024-01-30T10:51:37;5.20;99.90
1994;DHT22;998;49.906;10.908;2024-01-30T10:54:06;5.30;99.90
1994;DHT22;998;49.906;10.908;2024-01-30T10:56:35;5.50;99.90
1994;DHT22;998;49.906;10.908;2024-01-30T10:59:05;5.90;99.90
1994;DHT22;998;49.906;10.908;2024-01-30T11:01:32;5.30;99.90
1994;DHT22;998;49.906;10.908;2024-01-30T11:04:00;5.20;99.90
1994;DHT22;998;49.906;10.908;2024-01-30T11:06:27;5.40;99.90
1994;DHT22;998;49.906;10.908;2024-01-30T11:09:01;5.60;99.90
1994;DHT22;998;49.906;10.908;2024-01-30T11:11:30;5.50;99.90
1994;DHT22;998;49.906;10.908;2024-01-30T11:14:01;5.60;99.90
1994;DHT22;998;49.906;10.908;2024-01-30T11:16:32;5.60;99.90
1994;DHT22;998;49.906;10.908;2024-01-30T11:19:01;5.70;99.90
1994;DHT22;998;49.906;10.908;2024-01-30T11:21:28;5.70;99.90
1994;DHT22;998;49.906;10.908;2024-01-30T11:23:57;5.70;99.90
1994;DHT22;998;49.906;10.908;2024-01-30T11:26:28;5.80;99.90
1994;DHT22;998;49.906;10.908;2024-01-30T11:28:56;5.80;99.90
1994;DHT22;998;49.906;10.908;2024-01-30T11:31:23;6.00;99.90
1994;DHT22;998;49.906;10.908;2024-01-30T11:33:54;5.90;99.90
1994;DHT22;998;49.906;10.908;2024-01-30T11:36:25;6.10;99.90
1994;DHT22;998;49.906;10.908;2024-01-30T11:38:54;6.10;99.90
1994;DHT22;998;49.906;10.908;2024-01-30T11:41:22;6.20;99.90
1994;DHT22;998;49.906;10.908;2024-01-30T11:43:54;6.40;99.90
1994;DHT22;998;49.906;10.908;2024-01-30T11:46:22;6.60;99.90
1994;DHT22;998;49.906;10.908;2024-01-30T11:48:54;6.70;99.90
1994;DHT22;998;49.906;10.908;2024-01-30T11:51:21;6.60;99.90
1994;DHT22;998;49.906;10.908;2024-01-30T11:53:50;6.60;99.90
1994;DHT22;998;49.906;10.908;2024-01-30T11:56:17;6.50;99.90
1994;DHT22;998;49.906;10.908;2024-01-30T11:58:45;6.60;99.90
1994;DHT22;998;49.906;10.908;2024-01-30T12:01:12;6.70;99.90
1994;DHT22;998;49.906;10.908;2024-01-30T12:03:39;6.90;99.90
1994;DHT22;998;49.906;10.908;2024-01-30T12:06:08;7.10;99.90
1994;DHT22;998;49.906;10.908;2024-01-30T12:08:35;7.20;99.90
1994;DHT22;998;49.906;10.908;2024-01-30T12:11:03;7.70;99.90
1994;DHT22;998;49.906;10.908;2024-01-30T12:13:31;6.70;99.90
1994;DHT22;998;49.906;10.908;2024-01-30T12:15:58;6.10;99.90
1994;DHT22;998;49.906;10.908;2024-01-30T12:18:26;7.10;99.90
1994;DHT22;998;49.906;10.908;2024-01-30T12:20:57;7.50;99.90
1994;DHT22;998;49.906;10.908;2024-01-30T12:23:27;7.30;99.90
1994;DHT22;998;49.906;10.908;2024-01-30T12:25:55;7.30;99.90
1994;DHT22;998;49.906;10.908;2024-01-30T12:28:22;7.40;99.90
1994;DHT22;998;49.906;10.908;2024-01-30T12:30:49;7.50;99.90
1994;DHT22;998;49.906;10.908;2024-01-30T12:33:17;7.40;99.90
1994;DHT22;998;49.906;10.908;2024-01-30T12:35:48;7.50;99.90
1994;DHT22;998;49.906;10.908;2024-01-30T12:38:16;7.50;99.90
1994;DHT22;998;49.906;10.908;2024-01-30T12:40:45;7.60;99.90
1994;DHT22;998;49.906;10.908;2024-01-30T12:43:13;7.90;99.90
1994;DHT22;998;49.906;10.908;2024-01-30T12:45:42;8.20;99.90
1994;DHT22;998;49.906;10.908;2024-01-30T12:48:09;7.90;99.90
1994;DHT22;998;49.906;10.908;2024-01-30T12:50:36;7.90;99.90
1994;DHT22;998;49.906;10.908;2024-01-30T12:53:04;7.90;99.90
1994;DHT22;998;49.906;10.908;2024-01-30T12:55:31;8.10;99.90
1994;DHT22;998;49.906;10.908;2024-01-30T12:58:00;8.20;99.90
1994;DHT22;998;49.906;10.908;2024-01-30T13:00:28;8.30;99.90
1994;DHT22;998;49.906;10.908;2024-01-30T13:02:56;8.30;99.90
1994;DHT22;998;49.906;10.908;2024-01-30T13:05:23;8.20;99.90
1994;DHT22;998;49.906;10.908;2024-01-30T13:07:51;7.90;99.90
1994;DHT22;998;49.906;10.908;2024-01-30T13:10:19;8.00;99.90
1994;DHT22;998;49.906;10.908;2024-01-30T13:12:46;7.90;99.90
1994;DHT22;998;49.906;10.908;2024-01-30T13:15:15;7.90;99.90
1994;DHT22;998;49.906;10.908;2024-01-30T13:17:43;7.90;99.90
1994;DHT22;998;49.906;10.908;2024-01-30T13:20:13;7.90;99.90
1994;DHT22;998;49.906;10.908;2024-01-30T13:22:43;8.10;99.90
1994;DHT22;998;49.906;10.908;2024-01-30T13:25:11;8.00;99.90
1994;DHT22;998;49.906;10.908;2024-01-30T13:27:38;8.10;99.90
1994;DHT22;998;49.906;10.908;2024-01-30T13:30:07;8.20;99.90
1994;DHT22;998;49.906;10.908;2024-01-30T13:32:37;8.30;99.90
1994;DHT22;998;49.906;10.908;2024-01-30T13:35:04;8.50;99.90
1994;DHT22;998;49.906;10.908;2024-01-30T13:37:31;8.40;99.90
1994;DHT22;998;49.906;10.908;2024-01-30T13:39:59;8.40;99.90
1994;DHT22;998;49.906;10.908;2024-01-30T13:42:26;8.40;99.90
1994;DHT22;998;49.906;10.908;2024-01-30T13:44:54;8.30;99.90
1994;DHT22;998;49.906;10.908;2024-01-30T13:47:21;8.20;99.90
1994;DHT22;998;49.906;10.908;2024-01-30T13:49:50;8.40;99.90
1994;DHT22;998;49.906;10.908;2024-01-30T13:52:19;8.50;99.90
1994;DHT22;998;49.906;10.908;2024-01-30T13:54:46;8.20;99.90
1994;DHT22;998;49.906;10.908;2024-01-30T13:57:13;8.20;99.90
1994;DHT22;998;49.906;10.908;2024-01-30T13:59:41;8.20;99.90
1994;DHT22;998;49.906;10.908;2024-01-30T14:02:08;8.00;99.90
1994;DHT22;998;49.906;10.908;2024-01-30T14:04:36;8.40;99.90
1994;DHT22;998;49.906;10.908;2024-01-30T14:07:05;8.10;99.90
1994;DHT22;998;49.906;10.908;2024-01-30T14:09:33;8.60;99.90
1994;DHT22;998;49.906;10.908;2024-01-30T14:12:00;8.40;99.90
1994;DHT22;998;49.906;10.908;2024-01-30T14:14:28;8.40;99.90
1994;DHT22;998;49.906;10.908;2024-01-30T14:16:55;8.40;99.90
1994;DHT22;998;49.906;10.908;2024-01-30T14:19:22;8.60;99.90
1994;DHT22;998;49.906;10.908;2024-01-30T14:21:50;8.30;99.90
1994;DHT22;998;49.906;10.908;2024-01-30T14:24:18;8.30;99.90
1994;DHT22;998;49.906;10.908;2024-01-30T14:26:46;8.30;99.90
1994;DHT22;998;49.906;10.908;2024-01-30T14:29:13;8.30;99.90
1994;DHT22;998;49.906;10.908;2024-01-30T14:31:41;8.20;99.90
1994;DHT22;998;49.906;10.908;2024-01-30T14:34:08;8.30;99.90
1994;DHT22;998;49.906;10.908;2024-01-30T14:36:36;8.30;99.90
1994;DHT22;998;49.906;10.908;2024-01-30T14:39:04;8.00;99.90
1994;DHT22;998;49.906;10.908;2024-01-30T14:41:34;7.90;99.90
1994;DHT22;998;49.906;10.908;2024-01-30T14:44:01;8.10;99.90
1994;DHT22;998;49.906;10.908;2024-01-30T14:46:29;8.00;99.90
1994;DHT22;998;49.906;10.908;2024-01-30T14:48:56;8.00;99.90
1994;DHT22;998;49.906;10.908;2024-01-30T14:51:24;7.90;99.90
1994;DHT22;998;49.906;10.908;2024-01-30T14:53:52;8.00;99.90
1994;DHT22;998;49.906;10.908;2024-01-30T14:56:19;8.00;99.90
1994;DHT22;998;49.906;10.908;2024-01-30T14:58:49;8.00;99.90
1994;DHT22;998;49.906;10.908;2024-01-30T15:01:16;8.00;99.90
1994;DHT22;998;49.906;10.908;2024-01-30T15:03:44;7.80;99.90
1994;DHT22;998;49.906;10.908;2024-01-30T15:06:12;7.90;99.90
1994;DHT22;998;49.906;10.908;2024-01-30T15:08:40;7.90;99.90
1994;DHT22;998;49.906;10.908;2024-01-30T15:11:07;7.90;99.90
1994;DHT22;998;49.906;10.908;2024-01-30T15:13:35;7.90;99.90
1994;DHT22;998;49.906;10.908;2024-01-30T15:16:04;7.90;99.90
1994;DHT22;998;49.906;10.908;2024-01-30T15:18:31;7.80;99.90
1994;DHT22;998;49.906;10.908;2024-01-30T15:20:59;7.90;99.90
1994;DHT22;998;49.906;10.908;2024-01-30T15:23:26;7.90;99.90
1994;DHT22;998;49.906;10.908;2024-01-30T15:25:53;7.90;99.90
1994;DHT22;998;49.906;10.908;2024-01-30T15:28:33;7.90;99.90
1994;DHT22;998;49.906;10.908;2024-01-30T15:31:03;7.80;99.90
1994;DHT22;998;49.906;10.908;2024-01-30T15:33:31;7.80;99.90
1994;DHT22;998;49.906;10.908;2024-01-30T15:35:59;7.80;99.90
1994;DHT22;998;49.906;10.908;2024-01-30T15:38:26;7.80;99.90
1994;DHT22;998;49.906;10.908;2024-01-30T15:40:55;8.10;99.90
1994;DHT22;998;49.906;10.908;2024-01-30T15:43:22;7.70;99.90
1994;DHT22;998;49.906;10.908;2024-01-30T15:45:50;7.80;99.90
1994;DHT22;998;49.906;10.908;2024-01-30T15:48:19;7.70;99.90
1994;DHT22;998;49.906;10.908;2024-01-30T15:50:46;7.70;99.90
1994;DHT22;998;49.906;10.908;2024-01-30T15:53:14;7.70;99.90
1994;DHT22;998;49.906;10.908;2024-01-30T15:55:42;7.60;99.90
1994;DHT22;998;49.906;10.908;2024-01-30T15:58:09;8.70;99.90
1994;DHT22;998;49.906;10.908;2024-01-30T16:00:36;7.90;99.90
1994;DHT22;998;49.906;10.908;2024-01-30T16:03:04;7.70;99.90
1994;DHT22;998;49.906;10.908;2024-01-30T16:05:33;7.60;99.90
1994;DHT22;998;49.906;10.908;2024-01-30T16:08:01;7.60;99.90
1994;DHT22;998;49.906;10.908;2024-01-30T16:10:28;7.60;99.90
1994;DHT22;998;49.906;10.908;2024-01-30T16:12:55;7.60;99.90
1994;DHT22;998;49.906;10.908;2024-01-30T16:15:23;7.60;99.90
1994;DHT22;998;49.906;10.908;2024-01-30T16:17:51;7.60;99.90
1994;DHT22;998;49.906;10.908;2024-01-30T16:20:18;7.60;99.90